createdAt,value
2022-07-31T00:00:00.277Z,39.32
2022-07-31T00:01:00.276Z,39.48
2022-07-31T00:02:00.265Z,43.18
2022-07-31T00:03:00.317Z,41.41
2022-07-31T00:04:00.247Z,44.96
2022-07-31T00:05:00.237Z,39.80
2022-07-31T00:06:00.247Z,40.12
2022-07-31T00:07:00.526Z,47.05
2022-07-31T00:08:00.751Z,43.18
2022-07-31T00:09:00.213Z,46.73
2022-07-31T00:10:00.223Z,43.34
2022-07-31T00:11:00.195Z,48.18
2022-07-31T00:12:00.189Z,42.06
2022-07-31T00:13:00.212Z,42.54
2022-07-31T00:14:00.171Z,45.92
2022-07-31T00:15:00.170Z,44.15
2022-07-31T00:16:01.157Z,37.71
2022-07-31T00:17:00.513Z,40.77
2022-07-31T00:18:00.141Z,41.89
2022-07-31T00:19:00.137Z,40.61
2022-07-31T00:20:00.175Z,40.61
2022-07-31T00:21:00.117Z,40.44
2022-07-31T00:22:00.118Z,47.05
2022-07-31T00:23:00.098Z,45.92
2022-07-31T00:24:00.093Z,41.25
2022-07-31T00:25:00.092Z,44.96
2022-07-31T00:26:00.081Z,52.53
2022-07-31T00:27:00.306Z,43.02
2022-07-31T00:28:00.062Z,42.86
2022-07-31T00:29:00.074Z,44.79
2022-07-31T00:30:00.072Z,48.02
2022-07-31T00:31:00.067Z,41.25
2022-07-31T00:34:00.483Z,40.44
2022-07-31T00:35:00.481Z,37.22
2022-07-31T00:36:00.470Z,37.38
2022-07-31T00:37:01.003Z,41.41
2022-07-31T00:38:24.891Z,40.28
2022-07-31T00:39:03.540Z,46.41
2022-07-31T00:40:01.540Z,49.47
2022-07-31T00:41:01.536Z,48.98
2022-07-31T00:42:01.515Z,49.15
2022-07-31T00:43:01.499Z,45.60
2022-07-31T00:44:01.492Z,45.12
2022-07-31T00:45:01.486Z,50.92
2022-07-31T00:46:01.481Z,46.57
2022-07-31T00:47:01.800Z,45.12
2022-07-31T00:48:01.462Z,41.41
2022-07-31T00:49:01.478Z,47.21
2022-07-31T00:50:01.461Z,42.86
2022-07-31T00:51:02.359Z,46.41
2022-07-31T00:52:01.435Z,50.43
2022-07-31T00:53:01.423Z,47.37
2022-07-31T00:54:01.600Z,47.05
2022-07-31T00:55:01.421Z,39.32
2022-07-31T00:56:01.399Z,43.18
2022-07-31T00:57:01.708Z,46.89
2022-07-31T00:58:01.418Z,45.92
2022-07-31T00:59:01.378Z,47.21
2022-07-31T01:00:01.375Z,38.19
2022-07-31T01:01:01.415Z,50.76
2022-07-31T01:02:01.359Z,46.25
2022-07-31T01:03:01.341Z,45.12
2022-07-31T01:04:01.337Z,46.73
2022-07-31T01:05:01.332Z,40.93
2022-07-31T01:06:01.326Z,37.71
2022-07-31T01:07:01.771Z,38.83
2022-07-31T01:08:01.305Z,38.03
2022-07-31T01:09:01.305Z,36.58
2022-07-31T01:10:01.299Z,42.54
2022-07-31T01:11:01.292Z,48.66
2022-07-31T01:12:01.292Z,43.67
2022-07-31T01:13:01.280Z,40.44
2022-07-31T01:14:01.273Z,41.89
2022-07-31T01:15:02.950Z,42.06
2022-07-31T01:16:01.251Z,39.64
2022-07-31T01:17:01.797Z,37.38
2022-07-31T01:18:01.233Z,36.25
2022-07-31T01:19:01.220Z,41.25
2022-07-31T01:20:01.215Z,49.63
2022-07-31T01:21:01.210Z,49.79
2022-07-31T01:22:03.938Z,48.34
2022-07-31T01:23:01.197Z,54.62
2022-07-31T01:24:01.182Z,53.50
2022-07-31T01:25:01.173Z,49.95
2022-07-31T01:26:01.171Z,48.34
2022-07-31T01:27:01.536Z,49.31
2022-07-31T01:28:01.158Z,45.92
2022-07-31T01:29:01.154Z,47.86
2022-07-31T01:30:01.136Z,40.61
2022-07-31T01:31:24.230Z,37.87
2022-07-31T01:32:03.123Z,43.18
2022-07-31T01:33:01.112Z,40.28
2022-07-31T01:34:01.111Z,36.74
2022-07-31T01:35:01.102Z,37.54
2022-07-31T01:36:01.122Z,36.09
2022-07-31T01:37:01.600Z,35.29
2022-07-31T01:38:01.079Z,36.90
2022-07-31T01:39:01.070Z,44.31
2022-07-31T01:40:01.073Z,47.05
2022-07-31T01:41:01.053Z,42.22
2022-07-31T01:42:01.467Z,36.58
2022-07-31T01:43:01.052Z,43.18
2022-07-31T01:44:01.032Z,39.96
2022-07-31T01:45:01.028Z,39.48
2022-07-31T01:46:01.017Z,52.37
2022-07-31T01:47:01.464Z,43.99
2022-07-31T01:48:00.994Z,41.89
2022-07-31T01:49:01.000Z,41.25
2022-07-31T01:50:00.999Z,41.57
2022-07-31T01:51:00.973Z,42.06
2022-07-31T01:52:04.370Z,44.31
2022-07-31T01:53:01.008Z,43.18
2022-07-31T01:54:00.962Z,43.67
2022-07-31T01:55:00.939Z,37.38
2022-07-31T01:56:03.601Z,39.48
2022-07-31T01:57:00.940Z,43.67
2022-07-31T01:58:00.911Z,37.38
2022-07-31T01:59:01.909Z,36.58
2022-07-31T02:00:00.907Z,37.06
2022-07-31T02:01:00.950Z,39.32
2022-07-31T02:02:01.354Z,45.44
2022-07-31T02:03:07.697Z,36.90
2022-07-31T02:04:01.867Z,38.67
2022-07-31T02:05:00.854Z,51.40
2022-07-31T02:06:00.841Z,51.72
2022-07-31T02:07:00.840Z,41.73
2022-07-31T02:08:00.837Z,35.77
2022-07-31T02:09:00.823Z,36.58
2022-07-31T02:10:00.815Z,40.93
2022-07-31T02:11:00.804Z,49.47
2022-07-31T02:12:00.797Z,38.67
2022-07-31T02:13:00.803Z,36.09
2022-07-31T02:14:00.782Z,35.77
2022-07-31T02:15:00.789Z,37.54
2022-07-31T02:16:00.762Z,36.42
2022-07-31T02:17:00.761Z,35.45
2022-07-31T02:18:00.759Z,35.93
2022-07-31T02:19:01.144Z,36.25
2022-07-31T02:20:00.867Z,36.25
2022-07-31T02:21:00.731Z,36.25
2022-07-31T02:22:00.946Z,35.29
2022-07-31T02:23:00.711Z,37.54
2022-07-31T02:24:00.707Z,44.31
2022-07-31T02:25:00.694Z,37.38
2022-07-31T02:26:00.681Z,40.12
2022-07-31T02:27:00.677Z,43.51
2022-07-31T02:28:00.667Z,43.18
2022-07-31T02:29:00.668Z,36.09
2022-07-31T02:30:00.651Z,34.64
2022-07-31T02:31:00.645Z,35.13
2022-07-31T02:32:11.618Z,36.42
2022-07-31T02:33:01.623Z,35.13
2022-07-31T02:34:00.615Z,35.77
2022-07-31T02:35:00.603Z,37.87
2022-07-31T02:36:00.600Z,36.90
2022-07-31T02:37:00.603Z,36.09
2022-07-31T02:38:00.590Z,39.32
2022-07-31T02:39:00.572Z,43.83
2022-07-31T02:40:00.565Z,35.77
2022-07-31T02:41:00.560Z,38.83
2022-07-31T02:42:00.705Z,36.25
2022-07-31T02:43:00.545Z,37.87
2022-07-31T02:44:00.535Z,37.38
2022-07-31T02:45:00.541Z,35.45
2022-07-31T02:46:00.548Z,35.45
2022-07-31T02:47:00.516Z,35.93
2022-07-31T02:48:00.499Z,35.77
2022-07-31T02:49:00.544Z,46.89
2022-07-31T02:50:00.486Z,38.35
2022-07-31T02:51:00.492Z,34.80
2022-07-31T02:52:00.571Z,35.13
2022-07-31T02:53:00.459Z,40.93
2022-07-31T02:54:00.456Z,41.41
2022-07-31T02:55:00.447Z,43.83
2022-07-31T02:56:00.443Z,41.09
2022-07-31T02:57:00.438Z,36.90
2022-07-31T02:58:00.420Z,37.54
2022-07-31T02:59:00.426Z,36.25
2022-07-31T03:00:00.413Z,46.41
2022-07-31T03:01:00.516Z,37.87
2022-07-31T03:02:00.638Z,42.06
2022-07-31T03:03:00.395Z,47.70
2022-07-31T03:04:00.380Z,37.54
2022-07-31T03:05:00.371Z,35.77
2022-07-31T03:06:00.370Z,40.12
2022-07-31T03:07:00.371Z,39.80
2022-07-31T03:08:00.343Z,38.35
2022-07-31T03:09:00.352Z,36.58
2022-07-31T03:10:00.331Z,35.29
2022-07-31T03:11:00.321Z,34.97
2022-07-31T03:12:05.028Z,36.58
2022-07-31T03:13:00.305Z,35.61
2022-07-31T03:14:00.311Z,40.93
2022-07-31T03:15:00.290Z,35.13
2022-07-31T03:16:00.282Z,34.64
2022-07-31T03:17:00.272Z,36.74
2022-07-31T03:18:00.263Z,41.89
2022-07-31T03:19:00.270Z,42.38
2022-07-31T03:20:00.244Z,36.58
2022-07-31T03:21:00.238Z,42.54
2022-07-31T03:22:00.680Z,35.77
2022-07-31T03:23:00.220Z,35.29
2022-07-31T03:24:00.230Z,34.97
2022-07-31T03:25:00.208Z,35.29
2022-07-31T03:26:00.196Z,35.61
2022-07-31T03:27:00.189Z,36.74
2022-07-31T03:28:00.188Z,35.13
2022-07-31T03:29:00.186Z,36.25
2022-07-31T03:30:00.190Z,35.77
2022-07-31T03:31:00.173Z,36.58
2022-07-31T03:32:00.545Z,36.90
2022-07-31T03:33:00.148Z,38.03
2022-07-31T03:34:00.150Z,45.12
2022-07-31T03:35:01.134Z,36.58
2022-07-31T03:36:00.123Z,38.35
2022-07-31T03:37:00.119Z,38.83
2022-07-31T03:38:00.109Z,38.83
2022-07-31T03:39:00.102Z,39.64
2022-07-31T03:40:00.124Z,39.80
2022-07-31T03:41:00.108Z,41.73
2022-07-31T03:42:00.250Z,38.03
2022-07-31T03:43:00.076Z,38.19
2022-07-31T03:44:00.072Z,40.61
2022-07-31T03:45:00.067Z,45.44
2022-07-31T03:46:00.040Z,47.37
2022-07-31T03:47:00.032Z,44.31
2022-07-31T03:48:00.029Z,44.15
2022-07-31T03:49:01.056Z,36.58
2022-07-31T03:50:00.011Z,49.79
2022-07-31T03:51:00.018Z,44.79
2022-07-31T03:52:00.162Z,46.25
2022-07-31T03:52:59.987Z,39.64
2022-07-31T03:53:59.976Z,50.27
2022-07-31T03:54:59.970Z,49.63
2022-07-31T03:55:59.967Z,42.70
2022-07-31T03:56:59.957Z,36.25
2022-07-31T03:57:59.947Z,39.96
2022-07-31T03:58:59.934Z,43.51
2022-07-31T04:00:00.017Z,47.37
2022-07-31T04:00:59.946Z,46.89
2022-07-31T04:01:59.908Z,44.47
2022-07-31T04:02:59.903Z,50.76
2022-07-31T04:03:59.896Z,36.74
2022-07-31T04:04:59.958Z,37.87
2022-07-31T04:05:59.896Z,38.19
2022-07-31T04:06:59.882Z,43.83
2022-07-31T04:07:59.880Z,39.32
2022-07-31T04:08:59.857Z,43.51
2022-07-31T04:09:59.857Z,40.28
2022-07-31T04:10:59.850Z,38.19
2022-07-31T04:11:59.836Z,48.34
2022-07-31T04:12:59.835Z,35.77
2022-07-31T04:13:59.821Z,37.71
2022-07-31T04:14:59.832Z,38.19
2022-07-31T04:15:59.821Z,36.74
2022-07-31T04:16:59.796Z,43.99
2022-07-31T04:17:59.800Z,42.86
2022-07-31T04:18:59.909Z,43.67
2022-07-31T04:19:59.768Z,43.02
2022-07-31T04:20:59.771Z,40.77
2022-07-31T04:21:59.755Z,40.61
2022-07-31T04:22:59.745Z,41.41
2022-07-31T04:23:59.743Z,41.09
2022-07-31T04:24:59.730Z,39.16
2022-07-31T04:26:00.484Z,49.47
2022-07-31T04:26:59.713Z,38.51
2022-07-31T04:28:00.513Z,42.86
2022-07-31T04:28:59.700Z,43.02
2022-07-31T04:29:59.701Z,45.28
2022-07-31T04:30:59.698Z,36.42
2022-07-31T04:31:59.679Z,43.67
2022-07-31T04:32:59.679Z,38.83
2022-07-31T04:33:59.661Z,36.74
2022-07-31T04:34:59.655Z,38.83
2022-07-31T04:35:59.701Z,38.51
2022-07-31T04:36:59.638Z,37.54
2022-07-31T04:37:59.628Z,36.90
2022-07-31T04:38:59.620Z,35.77
2022-07-31T04:39:59.617Z,41.09
2022-07-31T04:40:59.611Z,45.44
2022-07-31T04:42:00.911Z,45.60
2022-07-31T04:42:59.587Z,40.44
2022-07-31T04:43:59.597Z,37.22
2022-07-31T04:44:59.577Z,41.25
2022-07-31T04:45:59.605Z,43.51
2022-07-31T04:46:59.580Z,48.34
2022-07-31T04:47:59.555Z,45.60
2022-07-31T04:48:59.626Z,43.83
2022-07-31T04:49:59.553Z,44.31
2022-07-31T04:50:59.528Z,38.99
2022-07-31T04:51:59.529Z,37.22
2022-07-31T04:52:59.513Z,46.41
2022-07-31T04:53:59.511Z,36.09
2022-07-31T04:54:59.494Z,35.61
2022-07-31T04:55:59.488Z,48.18
2022-07-31T04:56:59.478Z,48.18
2022-07-31T04:57:59.475Z,41.09
2022-07-31T04:58:59.467Z,43.34
2022-07-31T05:00:01.372Z,39.48
2022-07-31T05:00:59.444Z,35.93
2022-07-31T05:01:59.521Z,35.61
2022-07-31T05:02:59.438Z,38.67
2022-07-31T05:03:59.425Z,42.86
2022-07-31T05:04:59.415Z,44.79
2022-07-31T05:05:59.401Z,51.40
2022-07-31T05:06:59.402Z,44.31
2022-07-31T05:07:59.396Z,45.60
2022-07-31T05:08:59.379Z,44.47
2022-07-31T05:09:59.362Z,38.03
2022-07-31T05:11:00.371Z,47.05
2022-07-31T05:11:59.362Z,40.77
2022-07-31T05:12:59.356Z,40.93
2022-07-31T05:13:59.348Z,38.19
2022-07-31T05:14:59.338Z,36.74
2022-07-31T05:15:59.326Z,40.28
2022-07-31T05:16:59.314Z,37.71
2022-07-31T05:17:59.317Z,43.99
2022-07-31T05:18:59.307Z,43.67
2022-07-31T05:19:59.304Z,47.05
2022-07-31T05:20:59.304Z,45.28
2022-07-31T05:22:03.934Z,43.51
2022-07-31T05:23:00.265Z,44.63
2022-07-31T05:23:59.263Z,38.19
2022-07-31T05:24:59.259Z,37.87
2022-07-31T05:25:59.245Z,40.77
2022-07-31T05:26:59.244Z,38.35
2022-07-31T05:27:59.274Z,46.25
2022-07-31T05:28:59.228Z,36.58
2022-07-31T05:29:59.218Z,37.38
2022-07-31T05:30:59.216Z,37.06
2022-07-31T05:32:10.125Z,42.06
2022-07-31T05:33:00.225Z,50.92
2022-07-31T05:33:59.201Z,35.29
2022-07-31T05:34:59.173Z,35.61
2022-07-31T05:35:59.187Z,41.09
2022-07-31T05:36:59.166Z,47.05
2022-07-31T05:37:59.160Z,44.15
2022-07-31T05:38:59.144Z,45.28
2022-07-31T05:39:59.959Z,49.31
2022-07-31T05:40:59.132Z,40.93
2022-07-31T05:41:59.119Z,45.76
2022-07-31T05:42:59.118Z,39.32
2022-07-31T05:43:59.098Z,36.58
2022-07-31T05:44:59.111Z,35.45
2022-07-31T05:45:59.094Z,39.32
2022-07-31T05:48:43.822Z,42.70
2022-07-31T05:49:43.815Z,36.42
2022-07-31T05:50:43.804Z,44.96
2022-07-31T05:51:43.807Z,46.25
2022-07-31T05:52:44.887Z,39.96
2022-07-31T05:53:45.783Z,40.61
2022-07-31T05:54:45.867Z,47.05
2022-07-31T05:55:44.864Z,37.71
2022-07-31T05:56:44.868Z,43.67
2022-07-31T05:57:44.842Z,42.06
2022-07-31T05:58:48.307Z,43.02
2022-07-31T05:59:44.827Z,48.18
2022-07-31T06:00:44.848Z,38.99
2022-07-31T06:01:44.879Z,36.25
2022-07-31T06:02:44.799Z,38.83
2022-07-31T06:03:51.623Z,42.54
2022-07-31T06:04:45.783Z,40.93
2022-07-31T06:05:44.778Z,42.38
2022-07-31T06:06:44.773Z,48.50
2022-07-31T06:07:51.257Z,42.06
2022-07-31T06:08:45.762Z,43.83
2022-07-31T06:09:44.746Z,49.31
2022-07-31T06:10:44.753Z,43.99
2022-07-31T06:11:44.732Z,38.51
2022-07-31T06:12:44.725Z,38.19
2022-07-31T06:13:44.718Z,44.31
2022-07-31T06:14:44.701Z,47.37
2022-07-31T06:15:49.216Z,46.25
2022-07-31T06:16:44.686Z,45.28
2022-07-31T06:17:45.068Z,44.63
2022-07-31T06:18:44.667Z,49.63
2022-07-31T06:19:44.664Z,43.99
2022-07-31T06:20:44.658Z,54.79
2022-07-31T06:21:44.646Z,56.40
2022-07-31T06:22:44.638Z,56.24
2022-07-31T06:23:44.662Z,50.11
2022-07-31T06:24:44.627Z,48.34
2022-07-31T06:25:44.610Z,40.44
2022-07-31T06:26:44.601Z,44.15
2022-07-31T06:27:45.002Z,41.09
2022-07-31T06:28:48.599Z,47.37
2022-07-31T06:29:44.586Z,44.47
2022-07-31T06:30:44.569Z,48.34
2022-07-31T06:31:44.579Z,46.25
2022-07-31T06:32:44.553Z,48.82
2022-07-31T06:33:48.103Z,44.31
2022-07-31T06:34:44.538Z,42.54
2022-07-31T06:35:44.531Z,42.06
2022-07-31T06:36:44.520Z,41.09
2022-07-31T06:37:44.519Z,43.34
2022-07-31T06:38:44.530Z,41.57
2022-07-31T06:39:56.065Z,45.44
2022-07-31T06:40:45.483Z,53.01
2022-07-31T06:41:44.476Z,46.08
2022-07-31T06:42:44.467Z,35.29
2022-07-31T06:43:44.466Z,43.99
2022-07-31T06:44:46.422Z,50.76
2022-07-31T06:45:52.004Z,46.57
2022-07-31T06:46:49.042Z,37.54
2022-07-31T06:47:44.441Z,49.31
2022-07-31T06:48:44.424Z,43.18
2022-07-31T06:49:44.447Z,44.15
2022-07-31T06:50:44.516Z,38.67
2022-07-31T06:51:44.399Z,49.63
2022-07-31T06:52:44.391Z,52.05
2022-07-31T06:53:44.388Z,48.82
2022-07-31T06:54:44.372Z,46.73
2022-07-31T06:55:44.808Z,44.15
2022-07-31T06:56:44.404Z,52.37
2022-07-31T06:57:44.346Z,44.31
2022-07-31T06:58:44.366Z,53.50
2022-07-31T06:59:44.333Z,41.73
2022-07-31T07:00:44.337Z,42.22
2022-07-31T07:01:44.399Z,51.08
2022-07-31T07:02:44.308Z,46.57
2022-07-31T07:03:44.307Z,52.53
2022-07-31T07:05:05.401Z,43.83
2022-07-31T07:05:45.591Z,49.15
2022-07-31T07:06:45.277Z,49.95
2022-07-31T07:07:44.273Z,44.31
2022-07-31T07:08:44.269Z,47.21
2022-07-31T07:09:44.254Z,50.27
2022-07-31T07:10:44.246Z,48.02
2022-07-31T07:11:44.244Z,49.31
2022-07-31T07:12:44.232Z,40.12
2022-07-31T07:13:45.900Z,44.15
2022-07-31T07:14:44.218Z,42.22
2022-07-31T07:15:44.211Z,48.50
2022-07-31T07:16:44.196Z,51.72
2022-07-31T07:17:44.188Z,51.08
2022-07-31T07:18:44.187Z,50.92
2022-07-31T07:19:44.175Z,59.30
2022-07-31T07:20:44.173Z,59.46
2022-07-31T07:21:44.163Z,59.78
2022-07-31T07:22:44.149Z,58.65
2022-07-31T07:23:44.141Z,50.43
2022-07-31T07:24:44.138Z,50.92
2022-07-31T07:25:44.141Z,43.67
2022-07-31T07:26:44.122Z,49.15
2022-07-31T07:27:44.112Z,50.92
2022-07-31T07:28:44.106Z,51.56
2022-07-31T07:29:44.095Z,50.76
2022-07-31T07:30:44.091Z,55.27
2022-07-31T07:31:44.084Z,52.53
2022-07-31T07:32:44.070Z,53.98
2022-07-31T07:33:44.061Z,51.72
2022-07-31T07:34:44.071Z,55.43
2022-07-31T07:35:44.049Z,48.34
2022-07-31T07:36:44.040Z,47.70
2022-07-31T07:37:44.036Z,46.41
2022-07-31T07:38:44.022Z,46.25
2022-07-31T07:39:44.019Z,51.56
2022-07-31T07:40:44.007Z,52.85
2022-07-31T07:41:44.004Z,51.40
2022-07-31T07:42:43.992Z,57.52
2022-07-31T07:43:44.024Z,51.56
2022-07-31T07:44:43.976Z,48.34
2022-07-31T07:45:43.966Z,50.60
2022-07-31T07:46:43.966Z,49.47
2022-07-31T07:48:02.808Z,49.63
2022-07-31T07:48:44.967Z,52.53
2022-07-31T07:49:43.941Z,53.50
2022-07-31T07:50:43.932Z,43.67
2022-07-31T07:51:58.851Z,53.17
2022-07-31T07:52:44.904Z,51.56
2022-07-31T07:53:44.906Z,49.63
2022-07-31T07:54:43.898Z,51.56
2022-07-31T07:55:43.898Z,53.33
2022-07-31T07:56:43.921Z,54.14
2022-07-31T07:57:43.871Z,53.98
2022-07-31T07:58:43.862Z,53.33
2022-07-31T07:59:43.858Z,50.76
2022-07-31T08:00:43.913Z,52.53
2022-07-31T08:01:43.848Z,48.98
2022-07-31T08:02:43.838Z,49.31
2022-07-31T08:03:48.786Z,49.47
2022-07-31T08:04:47.620Z,49.15
2022-07-31T08:05:44.822Z,44.31
2022-07-31T08:06:43.801Z,49.47
2022-07-31T08:07:43.791Z,43.67
2022-07-31T08:08:43.791Z,48.50
2022-07-31T08:09:44.745Z,51.88
2022-07-31T08:10:44.767Z,50.92
2022-07-31T08:11:43.757Z,48.18
2022-07-31T08:12:43.753Z,47.21
2022-07-31T08:13:49.268Z,46.57
2022-07-31T08:14:45.732Z,52.53
2022-07-31T08:15:43.723Z,53.01
2022-07-31T08:16:43.721Z,53.01
2022-07-31T08:17:43.712Z,46.57
2022-07-31T08:18:43.702Z,53.50
2022-07-31T08:19:46.167Z,52.53
2022-07-31T08:20:44.685Z,50.43
2022-07-31T08:21:43.677Z,52.85
2022-07-31T08:22:43.674Z,49.79
2022-07-31T08:23:43.669Z,49.95
2022-07-31T08:24:43.656Z,44.79
2022-07-31T08:25:43.644Z,51.40
2022-07-31T08:26:43.637Z,53.01
2022-07-31T08:27:43.635Z,48.02
2022-07-31T08:28:50.832Z,50.76
2022-07-31T08:29:44.619Z,48.18
2022-07-31T08:30:43.615Z,53.01
2022-07-31T08:31:49.315Z,50.60
2022-07-31T08:32:44.583Z,41.25
2022-07-31T08:33:43.583Z,47.70
2022-07-31T08:34:43.574Z,53.98
2022-07-31T08:35:44.829Z,48.66
2022-07-31T08:36:45.258Z,53.66
2022-07-31T08:37:50.826Z,50.27
2022-07-31T08:38:44.541Z,46.25
2022-07-31T08:39:43.535Z,50.76
2022-07-31T08:40:43.796Z,52.85
2022-07-31T08:41:43.523Z,46.73
2022-07-31T08:42:43.520Z,55.75
2022-07-31T08:43:59.896Z,53.01
2022-07-31T08:44:45.335Z,51.56
2022-07-31T08:45:43.491Z,52.69
2022-07-31T08:46:43.483Z,54.79
2022-07-31T08:47:43.486Z,45.28
2022-07-31T08:48:43.488Z,51.24
2022-07-31T08:49:43.457Z,49.95
2022-07-31T08:50:43.451Z,53.82
2022-07-31T08:51:51.449Z,54.79
2022-07-31T08:52:44.437Z,48.34
2022-07-31T08:53:43.429Z,49.63
2022-07-31T08:54:43.420Z,55.11
2022-07-31T08:55:56.795Z,52.05
2022-07-31T08:56:44.404Z,48.18
2022-07-31T08:57:43.386Z,52.53
2022-07-31T08:58:44.384Z,55.27
2022-07-31T08:59:43.378Z,50.76
2022-07-31T09:00:43.427Z,48.82
2022-07-31T09:01:43.465Z,53.33
2022-07-31T09:02:43.346Z,58.33
2022-07-31T09:03:44.351Z,51.56
2022-07-31T09:04:43.843Z,52.53
2022-07-31T09:05:43.340Z,52.37
2022-07-31T09:06:43.348Z,55.27
2022-07-31T09:07:43.335Z,54.79
2022-07-31T09:08:43.315Z,53.33
2022-07-31T09:09:52.155Z,57.04
2022-07-31T09:10:49.663Z,50.43
2022-07-31T09:11:46.270Z,41.73
2022-07-31T09:12:43.277Z,52.53
2022-07-31T09:13:43.272Z,47.37
2022-07-31T09:14:44.261Z,51.24
2022-07-31T09:15:43.265Z,50.27
2022-07-31T09:16:43.246Z,51.56
2022-07-31T09:17:53.816Z,51.08
2022-07-31T09:18:44.227Z,52.53
2022-07-31T09:19:52.865Z,55.27
2022-07-31T09:20:44.220Z,53.50
2022-07-31T09:21:43.206Z,53.66
2022-07-31T09:22:43.200Z,53.98
2022-07-31T09:23:43.189Z,47.21
2022-07-31T09:24:43.184Z,49.15
2022-07-31T09:25:43.199Z,54.46
2022-07-31T09:26:43.169Z,51.40
2022-07-31T09:27:43.167Z,50.27
2022-07-31T09:28:43.155Z,54.79
2022-07-31T09:29:43.780Z,52.69
2022-07-31T09:30:55.616Z,55.43
2022-07-31T09:31:44.126Z,50.76
2022-07-31T09:32:43.124Z,47.53
2022-07-31T09:33:45.811Z,53.17
2022-07-31T09:34:44.101Z,48.98
2022-07-31T09:35:43.094Z,53.98
2022-07-31T09:36:43.098Z,53.50
2022-07-31T09:37:43.081Z,57.85
2022-07-31T09:38:43.072Z,55.11
2022-07-31T09:39:52.125Z,52.85
2022-07-31T09:40:55.497Z,55.43
2022-07-31T09:42:01.141Z,56.07
2022-07-31T09:42:45.795Z,54.62
2022-07-31T09:43:51.673Z,51.08
2022-07-31T09:44:44.027Z,53.50
2022-07-31T09:45:48.481Z,43.67
2022-07-31T09:46:44.016Z,53.17
2022-07-31T09:47:43.002Z,48.98
2022-07-31T09:48:44.133Z,56.88
2022-07-31T09:49:42.988Z,53.50
2022-07-31T09:50:42.977Z,49.63
2022-07-31T09:51:42.989Z,50.43
2022-07-31T09:52:42.954Z,52.37
2022-07-31T09:53:43.975Z,46.08
2022-07-31T09:54:42.935Z,51.88
2022-07-31T09:55:42.982Z,54.62
2022-07-31T09:56:42.938Z,54.30
2022-07-31T09:57:42.924Z,55.75
2022-07-31T09:58:43.928Z,53.01
2022-07-31T09:59:42.905Z,53.01
2022-07-31T10:00:43.002Z,55.59
2022-07-31T10:01:42.889Z,52.85
2022-07-31T10:02:42.896Z,49.47
2022-07-31T10:03:42.877Z,51.56
2022-07-31T10:04:43.376Z,52.37
2022-07-31T10:05:42.863Z,52.05
2022-07-31T10:06:42.850Z,55.11
2022-07-31T10:07:42.837Z,53.17
2022-07-31T10:08:42.833Z,51.88
2022-07-31T10:09:42.870Z,51.72
2022-07-31T10:10:42.824Z,54.30
2022-07-31T10:11:42.809Z,54.79
2022-07-31T10:12:42.813Z,53.17
2022-07-31T10:13:42.792Z,54.46
2022-07-31T10:14:42.784Z,54.62
2022-07-31T10:15:42.798Z,47.70
2022-07-31T10:16:42.771Z,50.27
2022-07-31T10:17:42.763Z,50.11
2022-07-31T10:18:44.620Z,55.27
2022-07-31T10:19:43.746Z,57.85
2022-07-31T10:20:42.749Z,54.79
2022-07-31T10:21:42.729Z,54.62
2022-07-31T10:22:42.753Z,55.43
2022-07-31T10:23:42.718Z,53.50
2022-07-31T10:24:42.708Z,55.91
2022-07-31T10:25:42.705Z,54.30
2022-07-31T10:27:00.179Z,48.82
2022-07-31T10:27:44.725Z,52.37
2022-07-31T10:28:42.685Z,53.66
2022-07-31T10:29:42.665Z,54.14
2022-07-31T10:30:42.656Z,54.62
2022-07-31T10:31:42.660Z,54.14
2022-07-31T10:32:42.737Z,50.92
2022-07-31T10:33:44.428Z,52.05
2022-07-31T10:34:43.636Z,55.75
2022-07-31T10:35:42.619Z,53.01
2022-07-31T10:36:42.639Z,54.30
2022-07-31T10:37:42.609Z,48.98
2022-07-31T10:38:42.596Z,49.95
2022-07-31T10:39:42.595Z,56.72
2022-07-31T10:40:43.040Z,56.07
2022-07-31T10:41:42.587Z,45.28
2022-07-31T10:42:42.596Z,55.91
2022-07-31T10:43:42.558Z,55.11
2022-07-31T10:44:42.547Z,49.63
2022-07-31T10:45:42.557Z,50.60
2022-07-31T10:46:42.534Z,52.05
2022-07-31T10:47:48.912Z,51.24
2022-07-31T10:48:43.517Z,54.46
2022-07-31T10:49:42.561Z,51.88
2022-07-31T10:50:42.507Z,52.05
2022-07-31T10:51:42.504Z,48.18
2022-07-31T10:52:42.510Z,51.72
2022-07-31T10:53:51.640Z,51.08
2022-07-31T10:54:43.461Z,56.88
2022-07-31T10:55:43.475Z,56.40
2022-07-31T10:56:42.465Z,55.59
2022-07-31T10:57:55.319Z,51.72
2022-07-31T10:58:43.450Z,49.15
2022-07-31T10:59:44.783Z,53.33
2022-07-31T11:00:43.445Z,55.27
2022-07-31T11:01:42.434Z,54.30
2022-07-31T11:02:46.324Z,50.11
2022-07-31T11:03:42.418Z,57.52
2022-07-31T11:04:42.398Z,56.56
2022-07-31T11:06:02.163Z,54.95
2022-07-31T11:06:43.426Z,54.14
2022-07-31T11:07:42.383Z,55.91
2022-07-31T11:08:42.386Z,48.02
2022-07-31T11:09:50.698Z,56.88
2022-07-31T11:10:43.370Z,50.11
2022-07-31T11:11:42.357Z,53.50
2022-07-31T11:12:42.349Z,52.05
2022-07-31T11:13:42.340Z,56.40
2022-07-31T11:14:42.327Z,52.85
2022-07-31T11:15:42.320Z,52.85
2022-07-31T11:16:42.309Z,54.30
2022-07-31T11:18:22.600Z,53.66
2022-07-31T11:18:43.297Z,51.56
2022-07-31T11:19:42.288Z,55.43
2022-07-31T11:20:42.277Z,51.08
2022-07-31T11:21:42.283Z,55.59
2022-07-31T11:22:42.268Z,48.34
2022-07-31T11:24:02.236Z,56.24
2022-07-31T11:24:43.266Z,59.78
2022-07-31T11:25:42.246Z,57.20
2022-07-31T11:26:42.372Z,53.98
2022-07-31T11:27:43.225Z,52.21
2022-07-31T11:28:42.221Z,51.88
2022-07-31T11:29:59.964Z,50.11
2022-07-31T11:30:43.201Z,55.11
2022-07-31T11:31:42.198Z,57.20
2022-07-31T11:32:42.183Z,56.88
2022-07-31T11:33:42.777Z,56.07
2022-07-31T11:34:42.836Z,52.69
2022-07-31T11:35:42.157Z,56.07
2022-07-31T11:36:42.854Z,55.27
2022-07-31T11:37:56.362Z,56.24
2022-07-31T11:38:43.134Z,56.72
2022-07-31T11:39:42.143Z,48.82
2022-07-31T11:40:43.117Z,55.27
2022-07-31T11:41:44.064Z,54.30
2022-07-31T11:42:42.103Z,54.95
2022-07-31T11:43:42.099Z,57.69
2022-07-31T11:44:42.092Z,54.30
2022-07-31T11:45:42.078Z,52.21
2022-07-31T11:46:42.071Z,51.56
2022-07-31T11:48:12.642Z,54.14
2022-07-31T11:48:45.589Z,52.05
2022-07-31T11:49:48.426Z,49.15
2022-07-31T11:50:43.074Z,49.63
2022-07-31T11:51:42.037Z,56.56
2022-07-31T11:52:42.025Z,56.07
2022-07-31T11:53:42.022Z,56.07
2022-07-31T11:54:42.019Z,54.62
2022-07-31T11:55:42.005Z,52.53
2022-07-31T11:56:43.843Z,52.53
2022-07-31T11:57:51.523Z,53.50
2022-07-31T11:58:42.972Z,51.24
2022-07-31T11:59:45.536Z,52.85
2022-07-31T12:00:41.962Z,58.17
2022-07-31T12:01:41.950Z,54.62
2022-07-31T12:02:41.986Z,52.69
2022-07-31T12:03:41.941Z,53.98
2022-07-31T12:04:41.932Z,55.91
2022-07-31T12:05:41.921Z,52.85
2022-07-31T12:06:41.917Z,50.76
2022-07-31T12:07:41.904Z,54.62
2022-07-31T12:08:41.904Z,56.88
2022-07-31T12:10:00.247Z,52.21
2022-07-31T12:10:42.886Z,57.69
2022-07-31T12:11:41.872Z,54.46
2022-07-31T12:12:41.866Z,54.95
2022-07-31T12:13:41.866Z,51.08
2022-07-31T12:14:41.856Z,55.59
2022-07-31T12:15:41.844Z,54.30
2022-07-31T12:16:41.839Z,49.79
2022-07-31T12:17:41.819Z,57.20
2022-07-31T12:18:42.818Z,54.79
2022-07-31T12:19:41.855Z,49.15
2022-07-31T12:20:41.807Z,55.59
2022-07-31T12:21:41.839Z,54.30
2022-07-31T12:22:41.793Z,56.72
2022-07-31T12:23:42.126Z,57.36
2022-07-31T12:24:41.770Z,57.04
2022-07-31T12:25:41.764Z,59.94
2022-07-31T12:26:41.758Z,53.98
2022-07-31T12:27:41.749Z,55.75
2022-07-31T12:28:41.746Z,54.79
2022-07-31T12:29:41.785Z,55.91
2022-07-31T12:30:41.726Z,55.11
2022-07-31T12:31:41.727Z,56.72
2022-07-31T12:32:41.712Z,58.49
2022-07-31T12:33:41.702Z,54.46
2022-07-31T12:34:41.696Z,52.05
2022-07-31T12:35:55.994Z,49.95
2022-07-31T12:36:42.685Z,55.91
2022-07-31T12:37:41.673Z,55.27
2022-07-31T12:38:47.690Z,52.85
2022-07-31T12:39:54.479Z,52.05
2022-07-31T12:40:42.655Z,49.63
2022-07-31T12:41:41.643Z,56.40
2022-07-31T12:42:42.220Z,56.56
2022-07-31T12:43:52.056Z,54.95
2022-07-31T12:44:42.622Z,55.75
2022-07-31T12:45:41.609Z,52.53
2022-07-31T12:46:41.626Z,53.66
2022-07-31T12:47:41.598Z,52.85
2022-07-31T12:48:45.968Z,52.37
2022-07-31T12:49:41.713Z,57.04
2022-07-31T12:50:41.588Z,49.79
2022-07-31T12:51:45.545Z,53.50
2022-07-31T12:52:42.555Z,52.37
2022-07-31T12:53:41.546Z,52.85
2022-07-31T12:54:41.537Z,57.69
2022-07-31T12:55:41.532Z,58.33